createdAt,value
2018-12-12T00:02:21.237Z,10.60
2018-12-12T00:04:49.401Z,10.72
2018-12-12T00:07:18.355Z,10.95
2018-12-12T00:09:46.786Z,12.60
2018-12-12T00:12:15.154Z,11.35
2018-12-12T00:14:43.285Z,11.33
2018-12-12T00:17:11.522Z,11.30
2018-12-12T00:19:39.661Z,10.82
2018-12-12T00:22:07.852Z,11.28
2018-12-12T00:24:36.089Z,11.40
2018-12-12T00:27:04.312Z,11.90
2018-12-12T00:29:32.454Z,10.95
2018-12-12T00:32:00.694Z,11.45
2018-12-12T00:34:28.823Z,12.03
2018-12-12T00:36:56.973Z,12.85
2018-12-12T00:39:25.134Z,11.83
2018-12-12T00:41:53.737Z,13.03
2018-12-12T00:44:22.001Z,12.93
2018-12-12T00:46:50.533Z,13.98
2018-12-12T00:49:18.825Z,13.95
2018-12-12T00:51:49.166Z,14.20
2018-12-12T00:54:17.243Z,14.95
2018-12-12T00:56:45.438Z,15.28
2018-12-12T00:59:13.781Z,15.75
2018-12-12T01:01:41.990Z,15.18
2018-12-12T01:04:10.058Z,14.60
2018-12-12T01:06:38.232Z,15.35
2018-12-12T01:09:07.824Z,14.93
2018-12-12T01:11:41.422Z,14.90
2018-12-12T01:14:09.515Z,15.50
2018-12-12T01:16:37.676Z,15.50
2018-12-12T01:19:05.855Z,15.83
2018-12-12T01:21:34.014Z,15.45
2018-12-12T01:24:02.210Z,15.45
2018-12-12T01:26:30.567Z,14.60
2018-12-12T01:28:58.763Z,14.43
2018-12-12T01:31:26.909Z,15.43
2018-12-12T01:33:55.110Z,14.73
2018-12-12T01:36:23.261Z,15.80
2018-12-12T01:38:51.380Z,15.63
2018-12-12T01:41:19.525Z,14.13
2018-12-12T01:43:47.565Z,14.50
2018-12-12T01:46:15.760Z,14.70
2018-12-12T01:48:44.125Z,14.87
2018-12-12T01:51:12.305Z,14.45
2018-12-12T01:53:41.094Z,14.85
2018-12-12T01:56:09.737Z,14.80
2018-12-12T01:58:38.918Z,15.70
2018-12-12T02:01:07.581Z,15.03
2018-12-12T02:03:36.023Z,15.85
2018-12-12T02:06:04.431Z,16.77
2018-12-12T02:08:32.605Z,14.80
2018-12-12T02:11:00.917Z,15.68
2018-12-12T02:13:36.425Z,15.80
2018-12-12T02:16:07.470Z,16.30
2018-12-12T02:18:37.843Z,16.15
2018-12-12T02:21:05.972Z,15.38
2018-12-12T02:23:34.132Z,15.65
2018-12-12T02:26:02.329Z,16.12
2018-12-12T02:28:30.495Z,16.32
2018-12-12T02:30:58.547Z,15.68
2018-12-12T02:33:26.626Z,15.78
2018-12-12T02:35:55.379Z,16.25
2018-12-12T02:38:23.585Z,16.15
2018-12-12T02:40:51.733Z,16.02
2018-12-12T02:43:19.931Z,15.70
2018-12-12T02:45:48.032Z,15.60
2018-12-12T02:48:16.180Z,16.85
2018-12-12T02:50:44.356Z,15.85
2018-12-12T02:53:12.401Z,16.37
2018-12-12T02:55:40.596Z,15.25
2018-12-12T02:58:08.681Z,16.40
2018-12-12T03:00:36.740Z,15.72
2018-12-12T03:03:05.046Z,14.80
2018-12-12T03:05:33.254Z,15.08
2018-12-12T03:08:01.453Z,15.80
2018-12-12T03:10:29.606Z,14.63
2018-12-12T03:12:57.717Z,13.75
2018-12-12T03:15:26.070Z,14.40
2018-12-12T03:17:54.263Z,15.05
2018-12-12T03:20:22.427Z,15.40
2018-12-12T03:22:50.885Z,14.98
2018-12-12T03:25:19.108Z,14.50
2018-12-12T03:27:47.141Z,14.45
2018-12-12T03:30:15.323Z,14.87
2018-12-12T03:32:43.479Z,14.93
2018-12-12T03:35:11.578Z,15.63
2018-12-12T03:37:39.757Z,14.53
2018-12-12T03:40:08.270Z,16.03
2018-12-12T03:42:36.635Z,15.40
2018-12-12T03:45:05.375Z,15.45
2018-12-12T03:47:33.566Z,17.40
2018-12-12T03:50:01.757Z,15.50
2018-12-12T03:52:29.777Z,17.82
2018-12-12T03:54:57.886Z,16.53
2018-12-12T03:57:25.924Z,16.70
2018-12-12T03:59:54.139Z,16.60
2018-12-12T04:02:22.287Z,16.95
2018-12-12T04:04:50.415Z,16.70
2018-12-12T04:07:18.847Z,17.10
2018-12-12T04:09:46.882Z,17.40
2018-12-12T04:12:14.988Z,18.27
2018-12-12T04:14:43.039Z,17.90
2018-12-12T04:17:12.212Z,17.65
2018-12-12T04:19:40.515Z,17.05
2018-12-12T04:22:08.817Z,18.32
2018-12-12T04:24:37.339Z,17.50
2018-12-12T04:27:05.465Z,17.90
2018-12-12T04:29:33.626Z,17.40
2018-12-12T04:32:01.746Z,17.40
2018-12-12T04:34:29.853Z,19.20
2018-12-12T04:36:58.483Z,18.30
2018-12-12T04:39:26.626Z,19.42
2018-12-12T04:41:54.834Z,20.20
2018-12-12T04:44:22.973Z,20.35
2018-12-12T04:46:51.167Z,20.08
2018-12-12T04:49:19.430Z,19.98
2018-12-12T04:51:48.844Z,21.95
2018-12-12T04:54:17.006Z,22.37
2018-12-12T04:56:45.149Z,21.57
2018-12-12T04:59:13.505Z,23.27
2018-12-12T05:01:41.822Z,21.82
2018-12-12T05:04:10.003Z,22.48
2018-12-12T05:06:38.056Z,22.60
2018-12-12T05:09:07.098Z,24.12
2018-12-12T05:11:36.870Z,23.40
2018-12-12T05:14:05.149Z,23.20
2018-12-12T05:16:33.309Z,26.55
2018-12-12T05:19:01.419Z,24.60
2018-12-12T05:21:29.544Z,24.12
2018-12-12T05:23:58.264Z,25.17
2018-12-12T05:26:26.512Z,28.10
2018-12-12T05:28:54.720Z,27.90
2018-12-12T05:31:22.787Z,27.75
2018-12-12T05:33:50.855Z,29.45
2018-12-12T05:36:18.922Z,33.70
2018-12-12T05:38:47.181Z,29.95
2018-12-12T05:41:15.365Z,27.83
2018-12-12T05:43:43.543Z,28.60
2018-12-12T05:46:11.620Z,29.48
2018-12-12T05:48:39.763Z,29.00
2018-12-12T05:51:07.866Z,27.55
2018-12-12T05:53:36.274Z,27.40
2018-12-12T05:56:04.328Z,26.60
2018-12-12T05:58:32.351Z,26.35
2018-12-12T06:01:00.548Z,27.73
2018-12-12T06:03:28.906Z,27.10
2018-12-12T06:05:57.106Z,27.22
2018-12-12T06:08:25.148Z,25.90
2018-12-12T06:10:53.346Z,26.80
2018-12-12T06:13:21.499Z,27.10
2018-12-12T06:15:49.708Z,26.40
2018-12-12T06:18:17.854Z,27.30
2018-12-12T06:20:46.138Z,26.07
2018-12-12T06:23:14.190Z,26.17
2018-12-12T06:25:42.370Z,25.95
2018-12-12T06:28:10.429Z,27.00
2018-12-12T06:30:38.624Z,26.65
2018-12-12T06:33:06.834Z,26.62
2018-12-12T06:35:35.591Z,28.25
2018-12-12T06:38:03.987Z,26.70
2018-12-12T06:40:32.113Z,26.93
2018-12-12T06:43:00.263Z,25.48
2018-12-12T06:45:28.578Z,25.88
2018-12-12T06:47:58.044Z,26.00
2018-12-12T06:50:26.453Z,27.02
2018-12-12T06:52:54.573Z,25.50
2018-12-12T06:55:22.803Z,24.35
2018-12-12T06:57:51.106Z,26.10
2018-12-12T07:00:19.346Z,26.65
2018-12-12T07:02:47.571Z,25.05
2018-12-12T07:05:15.589Z,24.63
2018-12-12T07:07:44.055Z,26.48
2018-12-12T07:10:12.389Z,26.23
2018-12-12T07:12:40.445Z,26.10
2018-12-12T07:15:08.705Z,27.27
2018-12-12T07:17:36.903Z,28.90
2018-12-12T07:20:05.146Z,26.07
2018-12-12T07:22:33.338Z,27.40
2018-12-12T07:25:01.519Z,26.95
2018-12-12T07:27:29.570Z,27.85
2018-12-12T07:29:57.645Z,27.58
2018-12-12T07:32:26.353Z,26.65
2018-12-12T07:34:54.725Z,26.82
2018-12-12T07:37:23.594Z,26.48
2018-12-12T07:39:51.882Z,27.90
2018-12-12T07:42:20.034Z,28.00
2018-12-12T07:44:48.225Z,26.52
2018-12-12T07:47:16.430Z,25.95
2018-12-12T07:49:44.493Z,26.90
2018-12-12T07:52:13.074Z,25.90
2018-12-12T07:54:41.446Z,27.13
2018-12-12T07:57:10.435Z,27.10
2018-12-12T07:59:38.490Z,26.07
2018-12-12T08:02:06.774Z,26.77
2018-12-12T08:04:34.978Z,28.07
2018-12-12T08:07:03.236Z,28.62
2018-12-12T08:09:31.361Z,28.00
2018-12-12T08:11:59.489Z,26.40
2018-12-12T08:14:27.627Z,26.12
2018-12-12T08:16:55.928Z,26.05
2018-12-12T08:19:24.198Z,25.77
2018-12-12T08:21:52.397Z,25.68
2018-12-12T08:24:20.539Z,26.70
2018-12-12T08:26:48.835Z,26.20
2018-12-12T08:29:17.085Z,26.07
2018-12-12T08:31:45.362Z,26.00
2018-12-12T08:34:13.509Z,26.25
2018-12-12T08:36:41.801Z,23.77
2018-12-12T08:39:09.885Z,26.50
2018-12-12T08:41:37.987Z,26.60
2018-12-12T08:44:06.229Z,25.77
2018-12-12T08:46:34.428Z,25.15
2018-12-12T08:49:02.598Z,26.73
2018-12-12T08:51:30.955Z,26.48
2018-12-12T08:53:59.321Z,26.68
2018-12-12T08:56:27.509Z,25.08
2018-12-12T08:58:56.619Z,26.75
2018-12-12T09:01:25.446Z,26.65
2018-12-12T09:03:53.551Z,28.40
2018-12-12T09:06:21.637Z,25.73
2018-12-12T09:10:23.902Z,25.57
2018-12-12T09:12:51.992Z,26.73
2018-12-12T09:15:20.148Z,23.57
2018-12-12T09:17:48.347Z,25.17
2018-12-12T09:20:16.391Z,25.20
2018-12-12T09:22:44.602Z,25.75
2018-12-12T09:25:12.643Z,23.62
2018-12-12T09:27:40.859Z,25.30
2018-12-12T09:30:09.269Z,23.70
2018-12-12T09:32:37.578Z,25.32
2018-12-12T09:35:06.344Z,23.20
2018-12-12T09:38:27.274Z,25.45
2018-12-12T09:40:55.352Z,25.23
2018-12-12T09:43:23.700Z,24.80
2018-12-12T09:45:52.138Z,24.63
2018-12-12T09:48:21.273Z,25.30
2018-12-12T09:50:49.594Z,24.77
2018-12-12T09:53:18.084Z,24.35
2018-12-12T09:55:46.324Z,24.47
2018-12-12T09:58:14.523Z,24.32
2018-12-12T10:00:42.660Z,25.97
2018-12-12T10:03:10.887Z,25.35
2018-12-12T10:05:39.202Z,24.65
2018-12-12T10:08:07.500Z,24.30
2018-12-12T10:10:35.567Z,24.63
2018-12-12T10:13:04.654Z,23.60
2018-12-12T10:15:32.934Z,23.42
2018-12-12T10:18:01.143Z,24.80
2018-12-12T10:20:29.162Z,23.80
2018-12-12T10:22:57.260Z,25.40
2018-12-12T10:25:25.302Z,23.60
2018-12-12T10:27:53.610Z,22.90
2018-12-12T10:30:21.646Z,23.95
2018-12-12T10:32:49.853Z,23.00
2018-12-12T10:35:18.105Z,23.05
2018-12-12T10:37:46.193Z,23.73
2018-12-12T10:40:14.370Z,24.20
2018-12-12T10:42:42.542Z,24.98
2018-12-12T10:45:10.742Z,24.52
2018-12-12T10:47:38.876Z,25.55
2018-12-12T10:50:08.911Z,23.70
2018-12-12T10:52:37.155Z,23.23
2018-12-12T10:55:05.861Z,23.83
2018-12-12T10:57:34.134Z,24.95
2018-12-12T11:00:02.194Z,24.72
2018-12-12T11:02:31.764Z,24.60
2018-12-12T11:05:00.094Z,23.52
2018-12-12T11:07:28.448Z,24.67
2018-12-12T11:09:56.540Z,26.10
2018-12-12T11:12:24.611Z,26.33
2018-12-12T11:14:52.656Z,24.82
2018-12-12T11:17:20.873Z,24.55
2018-12-12T11:19:48.909Z,25.77
2018-12-12T11:22:17.092Z,24.25
2018-12-12T11:24:45.359Z,24.70
2018-12-12T11:27:13.653Z,26.02
2018-12-12T11:29:41.716Z,24.75
2018-12-12T11:32:09.819Z,25.57
2018-12-12T11:34:37.848Z,25.32
2018-12-12T11:37:06.058Z,23.97
2018-12-12T11:39:34.093Z,24.60
2018-12-12T11:42:02.194Z,25.45
2018-12-12T11:44:30.321Z,24.90
2018-12-12T11:46:58.418Z,25.95
2018-12-12T11:49:26.505Z,24.18
2018-12-12T11:51:54.624Z,25.30
2018-12-12T11:54:22.871Z,25.30
2018-12-12T11:56:50.913Z,26.60
2018-12-12T11:59:19.064Z,25.92
2018-12-12T12:01:47.450Z,25.25
2018-12-12T12:04:15.663Z,24.50
2018-12-12T12:06:43.686Z,24.98
2018-12-12T12:09:11.877Z,25.80
2018-12-12T12:11:39.941Z,23.95
2018-12-12T12:14:08.030Z,24.50
2018-12-12T12:16:36.302Z,22.70
2018-12-12T12:19:04.502Z,24.70
2018-12-12T12:21:32.755Z,24.20
2018-12-12T12:24:00.982Z,24.80
2018-12-12T12:26:29.341Z,24.90
2018-12-12T12:28:57.822Z,25.17
2018-12-12T12:31:25.990Z,23.67
2018-12-12T12:33:54.390Z,24.98
2018-12-12T12:36:22.671Z,24.07
2018-12-12T12:38:50.781Z,24.52
2018-12-12T12:41:19.034Z,24.87
2018-12-12T12:43:47.146Z,25.25
2018-12-12T12:46:15.183Z,25.35
2018-12-12T12:48:44.162Z,25.35
2018-12-12T12:51:12.457Z,26.37
2018-12-12T12:53:40.941Z,25.55
2018-12-12T12:56:09.226Z,26.80
2018-12-12T12:58:37.386Z,27.48
2018-12-12T13:01:05.506Z,25.45
2018-12-12T13:03:33.518Z,26.80
2018-12-12T13:06:01.966Z,27.15
2018-12-12T13:08:30.171Z,25.50
2018-12-12T13:10:58.471Z,26.43
2018-12-12T13:13:26.913Z,27.30
2018-12-12T13:15:55.676Z,27.87
2018-12-12T13:18:23.814Z,29.32
2018-12-12T13:20:51.906Z,27.50
2018-12-12T13:23:20.060Z,27.40
2018-12-12T13:25:48.211Z,27.93
2018-12-12T13:28:16.270Z,28.12
2018-12-12T13:30:44.467Z,27.77
2018-12-12T13:33:12.722Z,26.05
2018-12-12T13:35:41.129Z,26.55
2018-12-12T13:38:10.412Z,25.80
2018-12-12T13:40:39.307Z,26.17
2018-12-12T13:43:07.484Z,24.37
2018-12-12T13:45:35.638Z,25.48
2018-12-12T13:48:03.818Z,25.65
2018-12-12T13:50:32.082Z,23.73
2018-12-12T13:53:00.175Z,24.85
2018-12-12T13:55:28.337Z,25.65
2018-12-12T13:57:56.428Z,24.10
2018-12-12T14:00:24.472Z,24.00
2018-12-12T14:02:52.581Z,24.27
2018-12-12T14:05:20.726Z,24.90
2018-12-12T14:07:48.910Z,24.55
2018-12-12T14:10:17.289Z,23.85
2018-12-12T14:12:45.962Z,24.95
2018-12-12T14:15:14.780Z,25.10
2018-12-12T14:17:42.855Z,24.90
2018-12-12T14:20:11.079Z,24.47
2018-12-12T14:22:39.295Z,23.70
2018-12-12T14:25:07.454Z,25.10
2018-12-12T14:27:38.885Z,23.42
2018-12-12T14:30:06.452Z,23.45
2018-12-12T14:32:34.493Z,24.10
2018-12-12T14:35:02.601Z,23.18
2018-12-12T14:37:30.651Z,21.87
2018-12-12T14:39:58.870Z,21.97
2018-12-12T14:42:27.026Z,19.62
2018-12-12T14:44:55.203Z,12.73
2018-12-12T14:47:23.363Z,9.40
2018-12-12T14:49:51.553Z,9.38
2018-12-12T14:52:19.589Z,7.97
2018-12-12T14:54:47.678Z,7.42
2018-12-12T14:57:15.726Z,7.45
2018-12-12T14:59:44.051Z,6.35
2018-12-12T15:02:12.166Z,5.83
2018-12-12T15:04:40.266Z,5.87
2018-12-12T15:07:08.310Z,5.83
2018-12-12T15:09:36.530Z,6.55
2018-12-12T15:12:04.674Z,6.65
2018-12-12T15:14:32.769Z,6.63
2018-12-12T15:17:00.934Z,6.80
2018-12-12T15:19:29.090Z,7.12
2018-12-12T15:21:57.203Z,7.70
2018-12-12T15:24:25.430Z,8.25
2018-12-12T15:26:53.841Z,8.05
2018-12-12T15:29:22.192Z,7.90
2018-12-12T15:31:50.503Z,7.67
2018-12-12T15:34:18.618Z,7.73
2018-12-12T15:36:46.754Z,8.10
2018-12-12T15:39:15.488Z,7.83
2018-12-12T15:41:43.597Z,8.40
2018-12-12T15:44:11.847Z,7.80
2018-12-12T15:46:39.958Z,9.08
2018-12-12T15:49:07.992Z,8.70
2018-12-12T15:51:36.708Z,9.05
2018-12-12T15:54:04.850Z,9.78
2018-12-12T15:56:33.054Z,9.35
2018-12-12T15:59:01.087Z,10.08
2018-12-12T16:01:29.275Z,11.15
2018-12-12T16:03:57.478Z,11.13
2018-12-12T16:06:25.642Z,11.00
2018-12-12T16:08:53.825Z,12.28
2018-12-12T16:11:22.103Z,11.80
2018-12-12T16:13:50.150Z,13.25
2018-12-12T16:16:18.312Z,13.13
2018-12-12T16:18:46.419Z,10.45
2018-12-12T16:21:14.578Z,11.90
2018-12-12T16:23:42.771Z,9.33
2018-12-12T16:26:10.911Z,9.63
2018-12-12T16:28:39.348Z,10.20
2018-12-12T16:31:07.858Z,11.00
2018-12-12T16:33:42.845Z,11.65
2018-12-12T16:36:11.179Z,11.83
2018-12-12T16:38:39.368Z,29.25
2018-12-12T16:41:07.821Z,26.85
2018-12-12T16:43:36.229Z,12.37
2018-12-12T16:46:04.502Z,12.85
2018-12-12T16:48:32.772Z,14.25
2018-12-12T16:51:00.917Z,14.80
2018-12-12T16:53:29.139Z,13.88
2018-12-12T16:55:57.490Z,13.55
2018-12-12T16:58:25.950Z,14.98
2018-12-12T17:00:54.145Z,14.13
2018-12-12T17:03:22.389Z,13.38
2018-12-12T17:05:50.606Z,14.00
2018-12-12T17:08:18.943Z,17.37
2018-12-12T17:10:47.145Z,12.88
2018-12-12T17:13:15.190Z,12.50
2018-12-12T17:15:43.493Z,13.00
2018-12-12T17:18:11.537Z,14.18
2018-12-12T17:20:40.268Z,14.03
2018-12-12T17:23:08.395Z,13.32
2018-12-12T17:25:36.486Z,14.05
2018-12-12T17:28:04.538Z,14.50
2018-12-12T17:30:32.713Z,14.45
2018-12-12T17:33:00.983Z,17.40
2018-12-12T17:35:29.918Z,14.83
2018-12-12T17:37:58.070Z,14.35
2018-12-12T17:40:26.161Z,14.85
2018-12-12T17:42:54.302Z,13.23
2018-12-12T17:45:22.370Z,12.60
2018-12-12T17:47:50.584Z,13.08
2018-12-12T17:50:18.738Z,13.28
2018-12-12T17:52:46.906Z,11.97
2018-12-12T17:55:15.081Z,13.00
2018-12-12T17:57:43.369Z,12.37
2018-12-12T18:00:11.796Z,13.55
2018-12-12T18:02:39.943Z,13.30
2018-12-12T18:05:08.055Z,13.35
2018-12-12T18:07:36.154Z,13.58
2018-12-12T18:10:04.600Z,14.13
2018-12-12T18:12:32.815Z,13.22
2018-12-12T18:15:00.967Z,15.50
2018-12-12T18:17:29.155Z,14.50
2018-12-12T18:19:57.298Z,15.00
2018-12-12T18:22:25.449Z,16.07
2018-12-12T18:24:53.652Z,18.12
2018-12-12T18:27:21.969Z,18.25
2018-12-12T18:29:50.136Z,18.70
2018-12-12T18:32:18.934Z,18.30
2018-12-12T18:34:47.085Z,17.60
2018-12-12T18:37:15.448Z,18.20
2018-12-12T18:39:43.658Z,17.30
2018-12-12T18:42:12.495Z,15.83
2018-12-12T18:44:41.116Z,16.85
2018-12-12T18:47:09.483Z,16.35
2018-12-12T18:49:38.416Z,16.97
2018-12-12T18:52:07.247Z,16.40
2018-12-12T18:54:35.434Z,18.80
2018-12-12T18:57:03.507Z,18.27
2018-12-12T18:59:32.315Z,21.23
2018-12-12T19:02:00.408Z,30.17
2018-12-12T19:04:28.466Z,29.07
2018-12-12T19:06:56.909Z,26.82
2018-12-12T19:09:25.208Z,25.97
2018-12-12T19:11:53.358Z,23.40
2018-12-12T19:14:21.848Z,23.27
2018-12-12T19:16:49.890Z,21.07
2018-12-12T19:19:18.097Z,18.70
2018-12-12T19:21:50.523Z,19.20
2018-12-12T19:24:18.634Z,19.23
2018-12-12T19:26:46.920Z,18.62
2018-12-12T19:29:14.971Z,16.80
2018-12-12T19:31:44.109Z,16.65
2018-12-12T19:34:12.241Z,16.60
2018-12-12T19:36:40.361Z,16.48
2018-12-12T19:39:10.130Z,15.90
2018-12-12T19:41:39.090Z,15.10
2018-12-12T19:44:07.193Z,15.45
2018-12-12T19:46:35.387Z,16.70
2018-12-12T19:49:04.451Z,16.20
2018-12-12T19:51:32.646Z,17.25
2018-12-12T19:54:02.114Z,17.52
2018-12-12T19:56:30.226Z,16.65
2018-12-12T19:59:02.960Z,19.75
2018-12-12T20:01:32.819Z,42.00
2018-12-12T20:04:03.438Z,17.90
2018-12-12T20:06:31.806Z,16.00
2018-12-12T20:09:00.938Z,16.45
2018-12-12T20:11:30.214Z,15.83
2018-12-12T20:13:59.483Z,17.40
2018-12-12T20:16:28.143Z,16.60
2018-12-12T20:18:57.690Z,16.87
2018-12-12T20:21:27.108Z,17.73
2018-12-12T20:23:55.278Z,16.62
2018-12-12T20:26:23.930Z,16.27
2018-12-12T20:28:52.060Z,15.45
2018-12-12T20:31:21.611Z,16.10
2018-12-12T20:33:50.647Z,16.37
2018-12-12T20:36:19.383Z,15.30
2018-12-12T20:38:49.188Z,15.43
2018-12-12T20:41:18.938Z,15.60
2018-12-12T20:43:49.344Z,16.10
2018-12-12T20:46:18.132Z,14.50
2018-12-12T20:48:47.156Z,15.15
2018-12-12T20:51:15.711Z,14.75
2018-12-12T20:53:43.802Z,16.20
2018-12-12T20:56:12.370Z,14.60
2018-12-12T20:58:41.085Z,15.32
2018-12-12T21:01:10.294Z,14.90
2018-12-12T21:03:38.727Z,14.47
2018-12-12T21:06:07.745Z,14.50
2018-12-12T21:08:35.798Z,15.45
2018-12-12T21:11:04.345Z,16.67
2018-12-12T21:13:32.443Z,15.48
2018-12-12T21:16:01.339Z,16.63
2018-12-12T21:18:29.926Z,18.37
2018-12-12T21:20:58.001Z,15.72
2018-12-12T21:23:26.220Z,14.47
2018-12-12T21:25:56.249Z,13.60
2018-12-12T21:28:24.456Z,13.80
2018-12-12T21:30:52.554Z,13.60
2018-12-12T21:33:20.711Z,12.00
2018-12-12T21:35:48.924Z,11.40
2018-12-12T21:38:17.151Z,11.48
2018-12-12T21:40:45.379Z,10.58
2018-12-12T21:43:14.215Z,10.80
2018-12-12T21:45:46.827Z,10.45
2018-12-12T21:48:14.966Z,10.00
2018-12-12T21:50:43.394Z,10.30
2018-12-12T21:53:11.443Z,10.10
2018-12-12T21:55:39.656Z,10.08
2018-12-12T21:58:07.989Z,10.60
2018-12-12T22:00:37.124Z,10.78
2018-12-12T22:03:05.463Z,10.25
2018-12-12T22:05:33.929Z,10.20
2018-12-12T22:08:02.702Z,9.20
2018-12-12T22:10:31.092Z,9.70
2018-12-12T22:12:59.273Z,9.95
2018-12-12T22:15:27.424Z,10.30
2018-12-12T22:17:55.753Z,10.10
2018-12-12T22:20:24.119Z,10.00
2018-12-12T22:22:52.286Z,9.93
2018-12-12T22:25:20.302Z,10.20
2018-12-12T22:27:48.434Z,10.58
2018-12-12T22:30:16.480Z,11.75
2018-12-12T22:32:44.766Z,11.53
2018-12-12T22:35:13.136Z,10.93
2018-12-12T22:37:41.922Z,10.75
2018-12-12T22:40:10.178Z,10.72
2018-12-12T22:42:38.299Z,11.22
2018-12-12T22:45:06.419Z,11.00
2018-12-12T22:47:34.591Z,10.88
2018-12-12T22:50:02.708Z,11.25
2018-12-12T22:52:31.042Z,11.22
2018-12-12T22:54:59.353Z,11.12
2018-12-12T22:57:27.699Z,11.60
2018-12-12T22:59:55.912Z,11.40
2018-12-12T23:02:23.938Z,11.90
2018-12-12T23:04:52.370Z,11.40
2018-12-12T23:07:20.388Z,11.40
2018-12-12T23:09:48.511Z,11.20
2018-12-12T23:12:16.527Z,11.35
2018-12-12T23:14:44.846Z,11.63
2018-12-12T23:17:13.933Z,12.23
2018-12-12T23:19:41.995Z,12.55
2018-12-12T23:22:10.158Z,13.38
2018-12-12T23:24:38.353Z,12.33
2018-12-12T23:27:06.424Z,12.82
2018-12-12T23:29:34.603Z,13.65
2018-12-12T23:32:03.157Z,11.85
2018-12-12T23:34:31.246Z,11.78
2018-12-12T23:37:00.190Z,12.93
2018-12-12T23:39:28.286Z,12.80
2018-12-12T23:41:56.458Z,12.58
2018-12-12T23:44:24.845Z,13.00
2018-12-12T23:46:53.049Z,13.03
2018-12-12T23:49:21.094Z,13.30
2018-12-12T23:51:49.917Z,13.45
2018-12-12T23:54:18.049Z,13.10
2018-12-12T23:56:46.133Z,14.30
2018-12-12T23:59:14.395Z,14.15
